sensor_id;sensor_type;location;lat;lon;timestamp;temperature;humidity
10282;DHT22;5186;59.472;18.048;2023-01-15T00:00:46;5.50;99.90
10282;DHT22;5186;59.472;18.048;2023-01-15T00:03:11;5.50;99.90
10282;DHT22;5186;59.472;18.048;2023-01-15T00:05:37;5.50;99.90
10282;DHT22;5186;59.472;18.048;2023-01-15T00:08:03;5.50;99.90
10282;DHT22;5186;59.472;18.048;2023-01-15T00:10:28;5.60;99.90
10282;DHT22;5186;59.472;18.048;2023-01-15T00:12:54;5.60;99.90
10282;DHT22;5186;59.472;18.048;2023-01-15T00:15:20;5.60;99.90
10282;DHT22;5186;59.472;18.048;2023-01-15T00:17:45;5.60;99.90
10282;DHT22;5186;59.472;18.048;2023-01-15T00:20:11;5.60;99.90
10282;DHT22;5186;59.472;18.048;2023-01-15T00:22:37;5.70;99.90
10282;DHT22;5186;59.472;18.048;2023-01-15T00:25:03;5.70;99.90
10282;DHT22;5186;59.472;18.048;2023-01-15T00:27:47;5.70;99.90
10282;DHT22;5186;59.472;18.048;2023-01-15T00:30:14;5.70;99.90
10282;DHT22;5186;59.472;18.048;2023-01-15T00:32:41;5.70;99.90
10282;DHT22;5186;59.472;18.048;2023-01-15T00:35:15;5.70;99.90
10282;DHT22;5186;59.472;18.048;2023-01-15T00:37:41;5.80;99.90
10282;DHT22;5186;59.472;18.048;2023-01-15T00:40:07;5.80;99.90
10282;DHT22;5186;59.472;18.048;2023-01-15T00:42:33;5.80;99.90
10282;DHT22;5186;59.472;18.048;2023-01-15T00:44:59;5.80;99.90
10282;DHT22;5186;59.472;18.048;2023-01-15T00:47:31;5.80;99.90
10282;DHT22;5186;59.472;18.048;2023-01-15T00:49:56;5.80;99.90
10282;DHT22;5186;59.472;18.048;2023-01-15T00:52:22;5.80;99.90
10282;DHT22;5186;59.472;18.048;2023-01-15T00:54:47;5.80;99.90
10282;DHT22;5186;59.472;18.048;2023-01-15T00:57:13;5.80;99.90
10282;DHT22;5186;59.472;18.048;2023-01-15T00:59:39;5.80;99.90
10282;DHT22;5186;59.472;18.048;2023-01-15T01:02:05;5.80;99.90
10282;DHT22;5186;59.472;18.048;2023-01-15T01:04:31;5.80;99.90
10282;DHT22;5186;59.472;18.048;2023-01-15T01:06:56;5.80;99.90
10282;DHT22;5186;59.472;18.048;2023-01-15T01:09:22;5.80;99.90
10282;DHT22;5186;59.472;18.048;2023-01-15T01:11:48;5.80;99.90
10282;DHT22;5186;59.472;18.048;2023-01-15T01:14:14;5.80;99.90
10282;DHT22;5186;59.472;18.048;2023-01-15T01:16:40;5.80;99.90
10282;DHT22;5186;59.472;18.048;2023-01-15T01:19:09;5.80;99.90
10282;DHT22;5186;59.472;18.048;2023-01-15T01:21:37;5.70;99.90
10282;DHT22;5186;59.472;18.048;2023-01-15T01:24:02;5.80;99.90
10282;DHT22;5186;59.472;18.048;2023-01-15T01:26:29;5.80;99.90
10282;DHT22;5186;59.472;18.048;2023-01-15T01:28:55;5.70;99.90
10282;DHT22;5186;59.472;18.048;2023-01-15T01:31:21;5.70;99.90
10282;DHT22;5186;59.472;18.048;2023-01-15T01:33:49;5.70;99.90
10282;DHT22;5186;59.472;18.048;2023-01-15T01:36:15;5.70;99.90
10282;DHT22;5186;59.472;18.048;2023-01-15T01:38:41;5.60;99.90
10282;DHT22;5186;59.472;18.048;2023-01-15T01:41:06;5.60;99.90
10282;DHT22;5186;59.472;18.048;2023-01-15T01:43:58;5.60;99.90
10282;DHT22;5186;59.472;18.048;2023-01-15T01:46:25;5.60;99.90
10282;DHT22;5186;59.472;18.048;2023-01-15T01:48:54;5.50;99.90
10282;DHT22;5186;59.472;18.048;2023-01-15T01:51:26;5.60;99.90
10282;DHT22;5186;59.472;18.048;2023-01-15T01:53:51;5.50;99.90
10282;DHT22;5186;59.472;18.048;2023-01-15T01:56:17;5.50;99.90
10282;DHT22;5186;59.472;18.048;2023-01-15T01:58:47;5.50;99.90
10282;DHT22;5186;59.472;18.048;2023-01-15T02:01:14;5.50;99.90
10282;DHT22;5186;59.472;18.048;2023-01-15T02:03:40;5.50;99.90
10282;DHT22;5186;59.472;18.048;2023-01-15T02:06:08;5.50;99.90
10282;DHT22;5186;59.472;18.048;2023-01-15T02:08:35;5.40;99.90
10282;DHT22;5186;59.472;18.048;2023-01-15T02:11:04;5.40;99.90
10282;DHT22;5186;59.472;18.048;2023-01-15T02:13:38;5.40;99.90
10282;DHT22;5186;59.472;18.048;2023-01-15T02:21:37;5.40;99.90
10282;DHT22;5186;59.472;18.048;2023-01-15T02:29:34;5.30;99.90
10282;DHT22;5186;59.472;18.048;2023-01-15T02:32:07;5.30;99.90
10282;DHT22;5186;59.472;18.048;2023-01-15T02:34:36;5.30;99.90
10282;DHT22;5186;59.472;18.048;2023-01-15T02:37:12;5.30;99.90
10282;DHT22;5186;59.472;18.048;2023-01-15T02:39:41;5.30;99.90
10282;DHT22;5186;59.472;18.048;2023-01-15T02:42:10;5.20;99.90
10282;DHT22;5186;59.472;18.048;2023-01-15T02:44:43;5.30;99.90
10282;DHT22;5186;59.472;18.048;2023-01-15T02:47:12;5.20;99.90
10282;DHT22;5186;59.472;18.048;2023-01-15T02:49:38;5.20;99.90
10282;DHT22;5186;59.472;18.048;2023-01-15T02:52:14;5.20;99.90
10282;DHT22;5186;59.472;18.048;2023-01-15T02:54:56;5.20;99.90
10282;DHT22;5186;59.472;18.048;2023-01-15T02:57:25;5.20;99.90
10282;DHT22;5186;59.472;18.048;2023-01-15T02:59:53;5.10;99.90
10282;DHT22;5186;59.472;18.048;2023-01-15T03:02:24;5.10;99.90
10282;DHT22;5186;59.472;18.048;2023-01-15T03:04:59;5.10;99.90
10282;DHT22;5186;59.472;18.048;2023-01-15T03:09:59;5.00;99.90
10282;DHT22;5186;59.472;18.048;2023-01-15T03:12:43;5.00;99.90
10282;DHT22;5186;59.472;18.048;2023-01-15T03:18:36;5.00;99.90
10282;DHT22;5186;59.472;18.048;2023-01-15T03:21:07;4.90;99.90
10282;DHT22;5186;59.472;18.048;2023-01-15T03:23:38;5.00;99.90
10282;DHT22;5186;59.472;18.048;2023-01-15T03:26:03;5.00;99.90
10282;DHT22;5186;59.472;18.048;2023-01-15T03:28:32;5.00;99.90
10282;DHT22;5186;59.472;18.048;2023-01-15T03:30:59;5.00;99.90
10282;DHT22;5186;59.472;18.048;2023-01-15T03:33:25;5.00;99.90
10282;DHT22;5186;59.472;18.048;2023-01-15T03:35:57;5.00;99.90
10282;DHT22;5186;59.472;18.048;2023-01-15T03:38:26;5.00;99.90
10282;DHT22;5186;59.472;18.048;2023-01-15T03:44:06;5.00;99.90
10282;DHT22;5186;59.472;18.048;2023-01-15T03:47:11;5.00;99.90
10282;DHT22;5186;59.472;18.048;2023-01-15T03:52:30;5.00;99.90
10282;DHT22;5186;59.472;18.048;2023-01-15T03:57:47;5.00;99.90
10282;DHT22;5186;59.472;18.048;2023-01-15T04:00:25;5.00;99.90
10282;DHT22;5186;59.472;18.048;2023-01-15T04:02:53;5.00;99.90
10282;DHT22;5186;59.472;18.048;2023-01-15T04:05:20;5.00;99.90
10282;DHT22;5186;59.472;18.048;2023-01-15T04:07:47;4.90;99.90
10282;DHT22;5186;59.472;18.048;2023-01-15T04:10:13;4.90;99.90
10282;DHT22;5186;59.472;18.048;2023-01-15T04:12:39;4.90;99.90
10282;DHT22;5186;59.472;18.048;2023-01-15T04:15:05;4.90;99.90
10282;DHT22;5186;59.472;18.048;2023-01-15T04:17:31;5.00;99.90
10282;DHT22;5186;59.472;18.048;2023-01-15T04:19:56;4.90;99.90
10282;DHT22;5186;59.472;18.048;2023-01-15T04:22:22;4.90;99.90
10282;DHT22;5186;59.472;18.048;2023-01-15T04:24:47;5.00;99.90
10282;DHT22;5186;59.472;18.048;2023-01-15T04:27:13;4.90;99.90
10282;DHT22;5186;59.472;18.048;2023-01-15T04:29:39;4.90;99.90
10282;DHT22;5186;59.472;18.048;2023-01-15T04:32:04;5.00;99.90
10282;DHT22;5186;59.472;18.048;2023-01-15T04:34:30;5.00;99.90
10282;DHT22;5186;59.472;18.048;2023-01-15T04:36:56;5.00;99.90
10282;DHT22;5186;59.472;18.048;2023-01-15T04:39:22;5.00;99.90
10282;DHT22;5186;59.472;18.048;2023-01-15T04:41:48;5.00;99.90
10282;DHT22;5186;59.472;18.048;2023-01-15T04:44:33;5.00;99.90
10282;DHT22;5186;59.472;18.048;2023-01-15T04:46:59;5.10;99.90
10282;DHT22;5186;59.472;18.048;2023-01-15T04:49:25;5.10;99.90
10282;DHT22;5186;59.472;18.048;2023-01-15T04:51:51;5.10;99.90
10282;DHT22;5186;59.472;18.048;2023-01-15T04:54:18;5.10;99.90
10282;DHT22;5186;59.472;18.048;2023-01-15T04:56:46;5.10;99.90
10282;DHT22;5186;59.472;18.048;2023-01-15T04:59:13;5.10;99.90
10282;DHT22;5186;59.472;18.048;2023-01-15T05:01:39;5.20;99.90
10282;DHT22;5186;59.472;18.048;2023-01-15T05:04:05;5.10;99.90
10282;DHT22;5186;59.472;18.048;2023-01-15T05:06:31;5.20;99.90
10282;DHT22;5186;59.472;18.048;2023-01-15T05:08:58;5.20;99.90
10282;DHT22;5186;59.472;18.048;2023-01-15T05:11:24;5.20;99.90
10282;DHT22;5186;59.472;18.048;2023-01-15T05:13:49;5.30;99.90
10282;DHT22;5186;59.472;18.048;2023-01-15T05:16:17;5.30;99.90
10282;DHT22;5186;59.472;18.048;2023-01-15T05:18:45;5.30;99.90
10282;DHT22;5186;59.472;18.048;2023-01-15T05:21:20;5.30;99.90
10282;DHT22;5186;59.472;18.048;2023-01-15T05:23:47;5.40;99.90
10282;DHT22;5186;59.472;18.048;2023-01-15T05:26:13;5.40;99.90
10282;DHT22;5186;59.472;18.048;2023-01-15T05:28:39;5.50;99.90
10282;DHT22;5186;59.472;18.048;2023-01-15T05:31:09;5.50;99.90
10282;DHT22;5186;59.472;18.048;2023-01-15T05:33:36;5.50;99.90
10282;DHT22;5186;59.472;18.048;2023-01-15T05:36:08;5.60;99.90
10282;DHT22;5186;59.472;18.048;2023-01-15T05:38:34;5.60;99.90
10282;DHT22;5186;59.472;18.048;2023-01-15T05:41:06;5.60;99.90
10282;DHT22;5186;59.472;18.048;2023-01-15T05:43:51;5.60;99.90
10282;DHT22;5186;59.472;18.048;2023-01-15T05:46:17;5.70;99.90
10282;DHT22;5186;59.472;18.048;2023-01-15T05:48:43;5.70;99.90
10282;DHT22;5186;59.472;18.048;2023-01-15T05:51:08;5.70;99.90
10282;DHT22;5186;59.472;18.048;2023-01-15T05:53:34;5.80;99.90
10282;DHT22;5186;59.472;18.048;2023-01-15T05:56:03;5.80;99.90
10282;DHT22;5186;59.472;18.048;2023-01-15T05:58:29;5.80;99.90
10282;DHT22;5186;59.472;18.048;2023-01-15T06:00:55;5.80;99.90
10282;DHT22;5186;59.472;18.048;2023-01-15T06:03:21;5.90;99.90
10282;DHT22;5186;59.472;18.048;2023-01-15T06:05:54;5.90;99.90
10282;DHT22;5186;59.472;18.048;2023-01-15T06:08:21;5.90;99.90
10282;DHT22;5186;59.472;18.048;2023-01-15T06:10:47;5.90;99.90
10282;DHT22;5186;59.472;18.048;2023-01-15T06:13:14;5.90;99.90
10282;DHT22;5186;59.472;18.048;2023-01-15T06:15:40;5.90;99.90
10282;DHT22;5186;59.472;18.048;2023-01-15T06:18:05;5.90;99.90
10282;DHT22;5186;59.472;18.048;2023-01-15T06:20:34;5.90;99.90
10282;DHT22;5186;59.472;18.048;2023-01-15T06:22:59;5.90;99.90
10282;DHT22;5186;59.472;18.048;2023-01-15T06:25:25;5.90;99.90
10282;DHT22;5186;59.472;18.048;2023-01-15T06:27:50;5.90;99.90
10282;DHT22;5186;59.472;18.048;2023-01-15T06:30:16;5.90;99.90
10282;DHT22;5186;59.472;18.048;2023-01-15T06:32:42;5.90;99.90
10282;DHT22;5186;59.472;18.048;2023-01-15T06:35:08;5.90;99.90
10282;DHT22;5186;59.472;18.048;2023-01-15T06:37:34;5.90;99.90
10282;DHT22;5186;59.472;18.048;2023-01-15T06:40:00;5.90;99.90
10282;DHT22;5186;59.472;18.048;2023-01-15T06:42:25;5.90;99.90
10282;DHT22;5186;59.472;18.048;2023-01-15T06:45:10;5.90;99.90
10282;DHT22;5186;59.472;18.048;2023-01-15T06:47:55;5.90;99.90
10282;DHT22;5186;59.472;18.048;2023-01-15T06:50:21;5.90;99.90
10282;DHT22;5186;59.472;18.048;2023-01-15T06:52:46;5.90;99.90
10282;DHT22;5186;59.472;18.048;2023-01-15T06:55:12;5.90;99.90
10282;DHT22;5186;59.472;18.048;2023-01-15T06:57:38;5.90;99.90
10282;DHT22;5186;59.472;18.048;2023-01-15T07:00:07;5.90;99.90
10282;DHT22;5186;59.472;18.048;2023-01-15T07:02:33;5.90;99.90
10282;DHT22;5186;59.472;18.048;2023-01-15T07:04:59;5.90;99.90
10282;DHT22;5186;59.472;18.048;2023-01-15T07:07:27;5.90;99.90
10282;DHT22;5186;59.472;18.048;2023-01-15T07:09:52;5.90;99.90
10282;DHT22;5186;59.472;18.048;2023-01-15T07:12:18;5.90;99.90
10282;DHT22;5186;59.472;18.048;2023-01-15T07:14:44;5.90;99.90
10282;DHT22;5186;59.472;18.048;2023-01-15T07:17:10;5.90;99.90
10282;DHT22;5186;59.472;18.048;2023-01-15T07:19:36;5.80;99.90
10282;DHT22;5186;59.472;18.048;2023-01-15T07:22:01;5.80;99.90
10282;DHT22;5186;59.472;18.048;2023-01-15T07:24:27;5.80;99.90
10282;DHT22;5186;59.472;18.048;2023-01-15T07:26:53;5.80;99.90
10282;DHT22;5186;59.472;18.048;2023-01-15T07:29:18;5.70;99.90
10282;DHT22;5186;59.472;18.048;2023-01-15T07:31:44;5.60;99.90
10282;DHT22;5186;59.472;18.048;2023-01-15T07:34:09;5.60;99.90
10282;DHT22;5186;59.472;18.048;2023-01-15T07:36:36;5.60;99.90
10282;DHT22;5186;59.472;18.048;2023-01-15T07:39:03;5.60;99.90
10282;DHT22;5186;59.472;18.048;2023-01-15T07:41:29;5.50;99.90
10282;DHT22;5186;59.472;18.048;2023-01-15T07:44:13;5.50;99.90
10282;DHT22;5186;59.472;18.048;2023-01-15T07:46:57;5.40;99.90
10282;DHT22;5186;59.472;18.048;2023-01-15T07:49:42;5.40;99.90
10282;DHT22;5186;59.472;18.048;2023-01-15T07:52:21;5.40;99.90
10282;DHT22;5186;59.472;18.048;2023-01-15T07:54:48;5.40;99.90
10282;DHT22;5186;59.472;18.048;2023-01-15T07:57:16;5.30;99.90
10282;DHT22;5186;59.472;18.048;2023-01-15T07:59:42;5.30;99.90
10282;DHT22;5186;59.472;18.048;2023-01-15T08:02:08;5.30;99.90
10282;DHT22;5186;59.472;18.048;2023-01-15T08:04:34;5.20;99.90
10282;DHT22;5186;59.472;18.048;2023-01-15T08:07:00;5.20;99.90
10282;DHT22;5186;59.472;18.048;2023-01-15T08:09:27;5.20;99.90
10282;DHT22;5186;59.472;18.048;2023-01-15T08:11:52;5.20;99.90
10282;DHT22;5186;59.472;18.048;2023-01-15T08:14:36;5.20;99.90
10282;DHT22;5186;59.472;18.048;2023-01-15T08:17:21;5.20;99.90
10282;DHT22;5186;59.472;18.048;2023-01-15T08:19:46;5.20;99.90
10282;DHT22;5186;59.472;18.048;2023-01-15T08:22:12;5.20;99.90
10282;DHT22;5186;59.472;18.048;2023-01-15T08:24:37;5.10;99.90
10282;DHT22;5186;59.472;18.048;2023-01-15T08:27:04;5.10;99.90
10282;DHT22;5186;59.472;18.048;2023-01-15T08:29:30;5.00;99.90
10282;DHT22;5186;59.472;18.048;2023-01-15T08:31:55;5.10;99.90
10282;DHT22;5186;59.472;18.048;2023-01-15T08:34:21;5.10;99.90
10282;DHT22;5186;59.472;18.048;2023-01-15T08:36:47;5.10;99.90
10282;DHT22;5186;59.472;18.048;2023-01-15T08:39:14;5.10;99.90
10282;DHT22;5186;59.472;18.048;2023-01-15T08:41:39;5.10;99.90
10282;DHT22;5186;59.472;18.048;2023-01-15T08:44:05;5.10;99.90
10282;DHT22;5186;59.472;18.048;2023-01-15T08:46:31;5.10;99.90
10282;DHT22;5186;59.472;18.048;2023-01-15T08:48:56;5.10;99.90
10282;DHT22;5186;59.472;18.048;2023-01-15T08:51:22;5.10;99.90
10282;DHT22;5186;59.472;18.048;2023-01-15T08:53:47;5.10;99.90
10282;DHT22;5186;59.472;18.048;2023-01-15T08:56:15;5.00;99.90
10282;DHT22;5186;59.472;18.048;2023-01-15T08:58:42;5.00;99.90
10282;DHT22;5186;59.472;18.048;2023-01-15T09:01:09;5.00;99.90
10282;DHT22;5186;59.472;18.048;2023-01-15T09:03:37;5.00;99.90
10282;DHT22;5186;59.472;18.048;2023-01-15T09:06:03;5.00;99.90
10282;DHT22;5186;59.472;18.048;2023-01-15T09:08:30;5.00;99.90
10282;DHT22;5186;59.472;18.048;2023-01-15T09:11:01;5.00;99.90
10282;DHT22;5186;59.472;18.048;2023-01-15T09:13:28;5.00;99.90
10282;DHT22;5186;59.472;18.048;2023-01-15T09:15:58;5.00;99.90
10282;DHT22;5186;59.472;18.048;2023-01-15T09:18:23;5.00;99.90
10282;DHT22;5186;59.472;18.048;2023-01-15T09:20:49;5.00;99.90
10282;DHT22;5186;59.472;18.048;2023-01-15T09:23:15;5.00;99.90
10282;DHT22;5186;59.472;18.048;2023-01-15T09:25:53;5.00;99.90
10282;DHT22;5186;59.472;18.048;2023-01-15T09:28:20;5.00;99.90
10282;DHT22;5186;59.472;18.048;2023-01-15T09:30:45;5.00;99.90
10282;DHT22;5186;59.472;18.048;2023-01-15T09:33:11;5.00;99.90
10282;DHT22;5186;59.472;18.048;2023-01-15T09:35:37;5.00;99.90
10282;DHT22;5186;59.472;18.048;2023-01-15T09:38:02;5.00;99.90
10282;DHT22;5186;59.472;18.048;2023-01-15T09:46:41;5.00;99.90
10282;DHT22;5186;59.472;18.048;2023-01-15T09:49:26;5.00;99.90
10282;DHT22;5186;59.472;18.048;2023-01-15T09:55:04;5.00;99.90
10282;DHT22;5186;59.472;18.048;2023-01-15T09:57:32;5.00;99.90
10282;DHT22;5186;59.472;18.048;2023-01-15T09:59:58;5.00;99.90
10282;DHT22;5186;59.472;18.048;2023-01-15T10:02:36;5.00;99.90
10282;DHT22;5186;59.472;18.048;2023-01-15T10:05:27;4.90;99.90
10282;DHT22;5186;59.472;18.048;2023-01-15T10:10:36;4.90;99.90
10282;DHT22;5186;59.472;18.048;2023-01-15T10:13:16;5.00;99.90
10282;DHT22;5186;59.472;18.048;2023-01-15T10:15:45;5.00;99.90
10282;DHT22;5186;59.472;18.048;2023-01-15T10:18:21;5.00;99.90
10282;DHT22;5186;59.472;18.048;2023-01-15T10:21:09;5.00;99.90
10282;DHT22;5186;59.472;18.048;2023-01-15T10:34:46;5.20;99.90
10282;DHT22;5186;59.472;18.048;2023-01-15T10:45:52;5.30;99.90
10282;DHT22;5186;59.472;18.048;2023-01-15T10:48:37;5.30;99.90
10282;DHT22;5186;59.472;18.048;2023-01-15T10:51:22;5.40;99.90
10282;DHT22;5186;59.472;18.048;2023-01-15T10:54:04;5.40;99.90
10282;DHT22;5186;59.472;18.048;2023-01-15T10:59:13;5.40;99.90
10282;DHT22;5186;59.472;18.048;2023-01-15T11:01:39;5.50;99.90
10282;DHT22;5186;59.472;18.048;2023-01-15T11:04:10;5.50;99.90
10282;DHT22;5186;59.472;18.048;2023-01-15T11:06:39;5.50;99.90
10282;DHT22;5186;59.472;18.048;2023-01-15T11:09:05;5.60;99.90
10282;DHT22;5186;59.472;18.048;2023-01-15T11:11:36;5.60;99.90
10282;DHT22;5186;59.472;18.048;2023-01-15T11:14:40;5.60;99.90
10282;DHT22;5186;59.472;18.048;2023-01-15T11:17:36;5.60;99.90
10282;DHT22;5186;59.472;18.048;2023-01-15T11:20:31;5.60;99.90
10282;DHT22;5186;59.472;18.048;2023-01-15T11:23:10;5.60;99.90
10282;DHT22;5186;59.472;18.048;2023-01-15T11:25:37;5.60;99.90
10282;DHT22;5186;59.472;18.048;2023-01-15T11:28:09;5.60;99.90
10282;DHT22;5186;59.472;18.048;2023-01-15T11:30:39;5.60;99.90
10282;DHT22;5186;59.472;18.048;2023-01-15T11:33:22;5.60;99.90
10282;DHT22;5186;59.472;18.048;2023-01-15T11:35:53;5.70;99.90
10282;DHT22;5186;59.472;18.048;2023-01-15T11:38:24;5.70;99.90
10282;DHT22;5186;59.472;18.048;2023-01-15T11:40:52;5.70;99.90
10282;DHT22;5186;59.472;18.048;2023-01-15T11:43:20;5.70;99.90
10282;DHT22;5186;59.472;18.048;2023-01-15T11:46:04;5.70;99.90
10282;DHT22;5186;59.472;18.048;2023-01-15T11:48:48;5.70;99.90
10282;DHT22;5186;59.472;18.048;2023-01-15T11:51:46;5.70;99.90
10282;DHT22;5186;59.472;18.048;2023-01-15T11:54:14;5.70;99.90
10282;DHT22;5186;59.472;18.048;2023-01-15T11:56:42;5.70;99.90
10282;DHT22;5186;59.472;18.048;2023-01-15T11:59:15;5.70;99.90
10282;DHT22;5186;59.472;18.048;2023-01-15T12:01:52;5.70;99.90
10282;DHT22;5186;59.472;18.048;2023-01-15T12:06:59;5.70;99.90
10282;DHT22;5186;59.472;18.048;2023-01-15T12:09:29;5.70;99.90
10282;DHT22;5186;59.472;18.048;2023-01-15T12:13:00;5.70;99.90
10282;DHT22;5186;59.472;18.048;2023-01-15T12:17:58;5.70;99.90
10282;DHT22;5186;59.472;18.048;2023-01-15T12:23:45;5.80;99.90
10282;DHT22;5186;59.472;18.048;2023-01-15T12:31:51;5.80;99.90
10282;DHT22;5186;59.472;18.048;2023-01-15T12:34:50;5.80;99.90
10282;DHT22;5186;59.472;18.048;2023-01-15T12:37:29;5.80;99.90
10282;DHT22;5186;59.472;18.048;2023-01-15T12:42:32;5.90;99.90
10282;DHT22;5186;59.472;18.048;2023-01-15T12:45:21;5.90;99.90
10282;DHT22;5186;59.472;18.048;2023-01-15T12:55:41;5.80;99.90
10282;DHT22;5186;59.472;18.048;2023-01-15T12:58:16;5.80;99.90
10282;DHT22;5186;59.472;18.048;2023-01-15T13:00:45;5.80;99.90
10282;DHT22;5186;59.472;18.048;2023-01-15T13:03:26;5.80;99.90
10282;DHT22;5186;59.472;18.048;2023-01-15T13:06:00;5.80;99.90
10282;DHT22;5186;59.472;18.048;2023-01-15T13:08:32;5.80;99.90
10282;DHT22;5186;59.472;18.048;2023-01-15T13:10:59;5.80;99.90
10282;DHT22;5186;59.472;18.048;2023-01-15T13:13:32;5.80;99.90
10282;DHT22;5186;59.472;18.048;2023-01-15T13:21:19;5.80;99.90
10282;DHT22;5186;59.472;18.048;2023-01-15T13:23:55;5.80;99.90
10282;DHT22;5186;59.472;18.048;2023-01-15T13:29:19;5.80;99.90
10282;DHT22;5186;59.472;18.048;2023-01-15T13:34:35;5.80;99.90
10282;DHT22;5186;59.472;18.048;2023-01-15T13:37:07;5.80;99.90
10282;DHT22;5186;59.472;18.048;2023-01-15T13:39:40;5.80;99.90
10282;DHT22;5186;59.472;18.048;2023-01-15T13:42:17;5.80;99.90
10282;DHT22;5186;59.472;18.048;2023-01-15T13:44:56;5.70;99.90
10282;DHT22;5186;59.472;18.048;2023-01-15T13:47:27;5.70;99.90
10282;DHT22;5186;59.472;18.048;2023-01-15T13:49:57;5.70;99.90
10282;DHT22;5186;59.472;18.048;2023-01-15T13:52:33;5.70;99.90
10282;DHT22;5186;59.472;18.048;2023-01-15T13:55:10;5.70;99.90
10282;DHT22;5186;59.472;18.048;2023-01-15T13:57:38;5.70;99.90
10282;DHT22;5186;59.472;18.048;2023-01-15T14:00:26;5.70;99.90
10282;DHT22;5186;59.472;18.048;2023-01-15T14:02:54;5.70;99.90
10282;DHT22;5186;59.472;18.048;2023-01-15T14:07:52;5.70;99.90
10282;DHT22;5186;59.472;18.048;2023-01-15T14:18:32;5.70;99.90
10282;DHT22;5186;59.472;18.048;2023-01-15T14:21:13;5.70;99.90
10282;DHT22;5186;59.472;18.048;2023-01-15T14:27:04;5.70;99.90
10282;DHT22;5186;59.472;18.048;2023-01-15T14:35:19;5.70;99.90
10282;DHT22;5186;59.472;18.048;2023-01-15T14:37:49;5.70;99.90
10282;DHT22;5186;59.472;18.048;2023-01-15T14:42:46;5.70;99.90
10282;DHT22;5186;59.472;18.048;2023-01-15T14:45:50;5.70;99.90
10282;DHT22;5186;59.472;18.048;2023-01-15T14:48:19;5.70;99.90
10282;DHT22;5186;59.472;18.048;2023-01-15T14:50:46;5.70;99.90
10282;DHT22;5186;59.472;18.048;2023-01-15T14:53:16;5.60;99.90
10282;DHT22;5186;59.472;18.048;2023-01-15T14:58:42;5.60;99.90
10282;DHT22;5186;59.472;18.048;2023-01-15T15:01:20;5.60;99.90
10282;DHT22;5186;59.472;18.048;2023-01-15T15:03:53;5.60;99.90
10282;DHT22;5186;59.472;18.048;2023-01-15T15:06:21;5.50;99.90
10282;DHT22;5186;59.472;18.048;2023-01-15T15:08:48;5.50;99.90
10282;DHT22;5186;59.472;18.048;2023-01-15T15:11:22;5.50;99.90
10282;DHT22;5186;59.472;18.048;2023-01-15T15:14:08;5.50;99.90
10282;DHT22;5186;59.472;18.048;2023-01-15T15:16:42;5.40;99.90
10282;DHT22;5186;59.472;18.048;2023-01-15T15:19:41;5.40;99.90
10282;DHT22;5186;59.472;18.048;2023-01-15T15:22:12;5.40;99.90
10282;DHT22;5186;59.472;18.048;2023-01-15T15:24:46;5.40;99.90
10282;DHT22;5186;59.472;18.048;2023-01-15T15:27:22;5.30;99.90
10282;DHT22;5186;59.472;18.048;2023-01-15T15:29:48;5.30;99.90
10282;DHT22;5186;59.472;18.048;2023-01-15T15:32:19;5.30;99.90
10282;DHT22;5186;59.472;18.048;2023-01-15T15:34:49;5.30;99.90
10282;DHT22;5186;59.472;18.048;2023-01-15T15:37:21;5.30;99.90
10282;DHT22;5186;59.472;18.048;2023-01-15T15:40:01;5.20;99.90
10282;DHT22;5186;59.472;18.048;2023-01-15T15:42:37;5.20;99.90
10282;DHT22;5186;59.472;18.048;2023-01-15T15:45:25;5.10;99.90
10282;DHT22;5186;59.472;18.048;2023-01-15T15:48:30;5.20;99.90
10282;DHT22;5186;59.472;18.048;2023-01-15T15:54:25;5.20;99.90
10282;DHT22;5186;59.472;18.048;2023-01-15T15:57:11;5.10;99.90
10282;DHT22;5186;59.472;18.048;2023-01-15T15:59:51;5.10;99.90
10282;DHT22;5186;59.472;18.048;2023-01-15T16:02:22;5.00;99.90
10282;DHT22;5186;59.472;18.048;2023-01-15T16:04:53;5.10;99.90
10282;DHT22;5186;59.472;18.048;2023-01-15T16:07:27;5.00;99.90
10282;DHT22;5186;59.472;18.048;2023-01-15T16:09:59;5.00;99.90
10282;DHT22;5186;59.472;18.048;2023-01-15T16:12:28;5.00;99.90
10282;DHT22;5186;59.472;18.048;2023-01-15T16:14:56;4.90;99.90
10282;DHT22;5186;59.472;18.048;2023-01-15T16:17:23;4.90;99.90
10282;DHT22;5186;59.472;18.048;2023-01-15T16:19:52;4.90;99.90
10282;DHT22;5186;59.472;18.048;2023-01-15T16:22:19;4.90;99.90
10282;DHT22;5186;59.472;18.048;2023-01-15T16:24:55;4.90;99.90
10282;DHT22;5186;59.472;18.048;2023-01-15T16:27:22;4.90;99.90
10282;DHT22;5186;59.472;18.048;2023-01-15T16:29:51;4.80;99.90
10282;DHT22;5186;59.472;18.048;2023-01-15T16:32:23;4.80;99.90
10282;DHT22;5186;59.472;18.048;2023-01-15T16:34:59;4.80;99.90
10282;DHT22;5186;59.472;18.048;2023-01-15T16:37:27;4.80;99.90
10282;DHT22;5186;59.472;18.048;2023-01-15T16:40:01;4.80;99.90
10282;DHT22;5186;59.472;18.048;2023-01-15T16:42:36;4.80;99.90
10282;DHT22;5186;59.472;18.048;2023-01-15T16:45:16;4.80;99.90
10282;DHT22;5186;59.472;18.048;2023-01-15T16:48:00;4.80;99.90
10282;DHT22;5186;59.472;18.048;2023-01-15T16:50:29;4.80;99.90
10282;DHT22;5186;59.472;18.048;2023-01-15T16:52:57;4.70;99.90
10282;DHT22;5186;59.472;18.048;2023-01-15T16:55:43;4.70;99.90
10282;DHT22;5186;59.472;18.048;2023-01-15T17:00:48;4.80;99.90
10282;DHT22;5186;59.472;18.048;2023-01-15T17:03:21;4.80;99.90
10282;DHT22;5186;59.472;18.048;2023-01-15T17:05:49;4.80;99.90
10282;DHT22;5186;59.472;18.048;2023-01-15T17:08:23;4.80;99.90
10282;DHT22;5186;59.472;18.048;2023-01-15T17:10:54;4.70;99.90
10282;DHT22;5186;59.472;18.048;2023-01-15T17:13:21;4.70;99.90
10282;DHT22;5186;59.472;18.048;2023-01-15T17:16:21;4.70;99.90
10282;DHT22;5186;59.472;18.048;2023-01-15T17:18:47;4.70;99.90
10282;DHT22;5186;59.472;18.048;2023-01-15T17:21:21;4.70;99.90
10282;DHT22;5186;59.472;18.048;2023-01-15T17:23:54;4.70;99.90
10282;DHT22;5186;59.472;18.048;2023-01-15T17:26:23;4.70;99.90
10282;DHT22;5186;59.472;18.048;2023-01-15T17:28:49;4.70;99.90
10282;DHT22;5186;59.472;18.048;2023-01-15T17:31:29;4.70;99.90
10282;DHT22;5186;59.472;18.048;2023-01-15T17:33:59;4.70;99.90
10282;DHT22;5186;59.472;18.048;2023-01-15T17:36:26;4.70;99.90
10282;DHT22;5186;59.472;18.048;2023-01-15T17:38:53;4.70;99.90
10282;DHT22;5186;59.472;18.048;2023-01-15T17:41:20;4.70;99.90
10282;DHT22;5186;59.472;18.048;2023-01-15T17:43:47;4.70;99.90
10282;DHT22;5186;59.472;18.048;2023-01-15T17:46:13;4.70;99.90
10282;DHT22;5186;59.472;18.048;2023-01-15T17:48:38;4.70;99.90
10282;DHT22;5186;59.472;18.048;2023-01-15T17:51:08;4.70;99.90
10282;DHT22;5186;59.472;18.048;2023-01-15T17:53:35;4.70;99.90
10282;DHT22;5186;59.472;18.048;2023-01-15T17:56:01;4.70;99.90
10282;DHT22;5186;59.472;18.048;2023-01-15T17:58:46;4.70;99.90
10282;DHT22;5186;59.472;18.048;2023-01-15T18:01:35;4.70;99.90
10282;DHT22;5186;59.472;18.048;2023-01-15T18:04:25;4.70;99.90
10282;DHT22;5186;59.472;18.048;2023-01-15T18:07:11;4.70;99.90
10282;DHT22;5186;59.472;18.048;2023-01-15T18:09:37;4.70;99.90
10282;DHT22;5186;59.472;18.048;2023-01-15T18:12:03;4.70;99.90
10282;DHT22;5186;59.472;18.048;2023-01-15T18:14:29;4.70;99.90